createdAt,value
2017-01-27T00:00:01.893Z,-1.62
2017-01-27T00:01:02.296Z,-1.52
2017-01-27T00:02:02.307Z,-1.61
2017-01-27T00:03:01.936Z,-1.56
2017-01-27T00:04:02.332Z,-1.58
2017-01-27T00:05:02.347Z,-1.58
2017-01-27T00:06:02.356Z,-1.51
2017-01-27T00:07:01.987Z,-1.41
2017-01-27T00:08:02.386Z,-1.4
2017-01-27T00:09:02.398Z,-1.48
2017-01-27T00:10:02.417Z,-1.48
2017-01-27T00:11:02.422Z,-1.46
2017-01-27T00:12:02.439Z,-1.46
2017-01-27T00:13:16.978Z,-1.55
2017-01-27T00:14:02.076Z,-1.55
2017-01-27T00:15:02.505Z,-1.45
2017-01-27T00:16:02.487Z,-1.49
2017-01-27T00:17:02.501Z,-1.54
2017-01-27T00:18:02.513Z,-1.51
2017-01-27T00:19:02.527Z,-1.55
2017-01-27T00:20:02.545Z,-1.52
2017-01-27T00:21:02.554Z,-1.51
2017-01-27T00:22:02.571Z,-1.46
2017-01-27T00:23:02.579Z,-1.51
2017-01-27T00:24:02.592Z,-1.54
2017-01-27T00:25:02.603Z,-1.51
2017-01-27T00:26:02.618Z,-1.59
2017-01-27T00:27:02.631Z,-1.51
2017-01-27T00:28:02.646Z,-1.49
2017-01-27T00:29:17.185Z,-1.51
2017-01-27T00:31:02.685Z,-1.41
2017-01-27T00:32:02.696Z,-1.41
2017-01-27T00:33:01.934Z,-1.37
2017-01-27T00:34:02.721Z,-1.49
2017-01-27T00:35:02.733Z,-1.48
2017-01-27T00:36:02.744Z,-1.58
2017-01-27T00:37:02.758Z,-1.46
2017-01-27T00:38:02.774Z,-1.49
2017-01-27T00:39:17.315Z,-1.61
2017-01-27T00:40:02.797Z,-1.54
2017-01-27T00:41:02.810Z,-1.59
2017-01-27T00:43:02.837Z,-1.48
2017-01-27T00:45:02.865Z,-1.59
2017-01-27T00:46:02.878Z,-1.64
2017-01-27T00:47:02.889Z,-1.59
2017-01-27T00:48:02.900Z,-1.59
2017-01-27T00:49:02.917Z,-1.61
2017-01-27T00:50:17.460Z,-1.51
2017-01-27T00:51:02.939Z,-1.58
2017-01-27T00:52:02.959Z,-1.64
2017-01-27T00:53:02.966Z,-1.62
2017-01-27T00:54:02.985Z,-1.59
2017-01-27T00:55:02.994Z,-1.67
2017-01-27T00:56:03.006Z,-1.58
2017-01-27T00:57:03.018Z,-1.59
2017-01-27T00:58:03.032Z,-1.64
2017-01-27T00:59:03.053Z,-1.7
2017-01-27T01:01:03.071Z,-1.76
2017-01-27T01:02:03.083Z,-1.72
2017-01-27T01:03:17.632Z,-1.66
2017-01-27T01:04:03.109Z,-1.76
2017-01-27T01:05:03.122Z,-1.66
2017-01-27T01:06:03.133Z,-1.64
2017-01-27T01:07:03.175Z,-1.74
2017-01-27T01:08:02.774Z,-1.69
2017-01-27T01:09:03.203Z,-1.72
2017-01-27T01:10:03.190Z,-1.76
2017-01-27T01:11:03.204Z,-1.8
2017-01-27T01:12:03.233Z,-1.56
2017-01-27T01:14:03.241Z,-1.61
2017-01-27T01:15:03.255Z,-1.66
2017-01-27T01:16:17.796Z,-1.76
2017-01-27T01:17:03.273Z,-1.69
2017-01-27T01:19:03.308Z,-1.8
2017-01-27T01:20:03.316Z,-1.74
2017-01-27T01:21:03.331Z,-1.73
2017-01-27T01:22:17.875Z,-1.79
2017-01-27T01:23:03.353Z,-1.77
2017-01-27T01:24:03.367Z,-1.82
2017-01-27T01:25:03.379Z,-1.88
2017-01-27T01:26:03.399Z,-1.82
2017-01-27T01:27:03.407Z,-1.87
2017-01-27T01:29:03.435Z,-1.72
2017-01-27T01:30:03.442Z,-1.77
2017-01-27T01:31:03.454Z,-1.74
2017-01-27T01:32:17.998Z,-1.79
2017-01-27T01:33:03.478Z,-1.85
2017-01-27T01:35:03.506Z,-1.69
2017-01-27T01:36:03.518Z,-1.79
2017-01-27T01:37:03.531Z,-1.76
2017-01-27T01:38:03.546Z,-1.77
2017-01-27T01:39:03.561Z,-1.8
2017-01-27T01:40:03.184Z,-1.74
2017-01-27T01:41:18.112Z,-1.8
2017-01-27T01:42:03.597Z,-1.8
2017-01-27T01:43:03.607Z,-1.8
2017-01-27T01:44:03.620Z,-1.84
2017-01-27T01:45:03.650Z,-1.84
2017-01-27T01:46:03.651Z,-1.91
2017-01-27T01:48:18.201Z,-1.9
2017-01-27T01:50:03.699Z,-1.92
2017-01-27T01:51:03.713Z,-1.95
2017-01-27T01:52:03.723Z,-1.97
2017-01-27T01:53:03.738Z,-1.92
2017-01-27T01:54:03.750Z,-1.9
2017-01-27T01:55:18.293Z,-1.88
2017-01-27T01:56:03.774Z,-1.84
2017-01-27T01:57:03.787Z,-1.91
2017-01-27T01:58:03.800Z,-1.91
2017-01-27T01:59:03.812Z,-1.91
2017-01-27T02:00:03.827Z,-1.97
2017-01-27T02:01:03.838Z,-1.91
2017-01-27T02:02:03.864Z,-2
2017-01-27T02:03:03.867Z,-2.02
2017-01-27T02:05:03.890Z,-1.91
2017-01-27T02:06:03.901Z,-1.91
2017-01-27T02:07:03.913Z,-1.97
2017-01-27T02:08:03.928Z,-2.06
2017-01-27T02:09:03.939Z,-1.92
2017-01-27T02:10:03.952Z,-1.92
2017-01-27T02:11:18.514Z,-1.92
2017-01-27T02:12:03.979Z,-2.02
2017-01-27T02:13:03.990Z,-1.94
2017-01-27T02:14:04.003Z,-1.94
2017-01-27T02:15:04.035Z,-1.98
2017-01-27T02:17:04.041Z,-1.98
2017-01-27T02:18:04.058Z,-2.03
2017-01-27T02:19:18.605Z,-2.03
2017-01-27T02:20:04.082Z,-1.98
2017-01-27T02:21:03.709Z,-1.91
2017-01-27T02:22:04.103Z,-1.87
2017-01-27T02:23:04.321Z,-1.98
2017-01-27T02:24:04.131Z,-1.95
2017-01-27T02:25:04.142Z,-2.05
2017-01-27T02:26:04.153Z,-1.97
2017-01-27T02:27:04.171Z,-1.94
2017-01-27T02:28:04.182Z,-2.06
2017-01-27T02:29:04.192Z,-2.05
2017-01-27T02:30:04.230Z,-1.94
2017-01-27T02:31:04.225Z,-2.09
2017-01-27T02:32:04.236Z,-2.06
2017-01-27T02:33:04.244Z,-2
2017-01-27T02:34:04.264Z,-2.09
2017-01-27T02:35:04.267Z,-2.05
2017-01-27T02:36:04.278Z,-2.08
2017-01-27T02:37:04.290Z,-2.12
2017-01-27T02:38:04.304Z,-2.06
2017-01-27T02:39:04.320Z,-2
2017-01-27T02:40:04.329Z,-2.2
2017-01-27T02:41:04.341Z,-2.12
2017-01-27T02:42:18.501Z,-2.12
2017-01-27T02:43:04.368Z,-2.05
2017-01-27T02:44:18.908Z,-1.98
2017-01-27T02:46:18.549Z,-2.08
2017-01-27T02:47:18.560Z,-2.1
2017-01-27T02:48:04.429Z,-2.09
2017-01-27T02:49:04.445Z,-2.09
2017-01-27T02:50:04.455Z,-2.05
2017-01-27T02:51:18.611Z,-2.05
2017-01-27T02:52:04.483Z,-2.13
2017-01-27T02:53:04.493Z,-2.15
2017-01-27T02:54:04.506Z,-2.13
2017-01-27T02:55:04.520Z,-2.18
2017-01-27T02:56:04.151Z,-2.18
2017-01-27T02:57:04.547Z,-2.21
2017-01-27T02:58:19.087Z,-2.09
2017-01-27T02:59:04.565Z,-2.13
2017-01-27T03:00:19.110Z,-2.26
2017-01-27T03:01:04.596Z,-2.2
2017-01-27T03:02:04.606Z,-2.23
2017-01-27T03:03:04.624Z,-2.26
2017-01-27T03:04:04.632Z,-2.18
2017-01-27T03:05:04.649Z,-2.16
2017-01-27T03:06:04.658Z,-2.2
2017-01-27T03:07:18.810Z,-2.2
2017-01-27T03:08:04.684Z,-2.15
2017-01-27T03:09:04.693Z,-2.23
2017-01-27T03:10:04.710Z,-2.13
2017-01-27T03:11:04.719Z,-2.23
2017-01-27T03:12:04.729Z,-2.18
2017-01-27T03:13:04.742Z,-2.26
2017-01-27T03:14:04.753Z,-2.13
2017-01-27T03:15:19.297Z,-2.2
2017-01-27T03:16:19.309Z,-2.1
2017-01-27T03:17:04.792Z,-2.1
2017-01-27T03:18:04.805Z,-2.26
2017-01-27T03:19:04.818Z,-2.24
2017-01-27T03:20:04.830Z,-2.27
2017-01-27T03:21:04.840Z,-2.3
2017-01-27T03:22:04.860Z,-2.13
2017-01-27T03:24:04.880Z,-2.27
2017-01-27T03:25:04.890Z,-2.27
2017-01-27T03:26:04.909Z,-2.29
2017-01-27T03:27:04.920Z,-2.24
2017-01-27T03:28:04.925Z,-2.27
2017-01-27T03:29:04.945Z,-2.43
2017-01-27T03:30:04.959Z,-2.32
2017-01-27T03:31:04.964Z,-2.24
2017-01-27T03:32:04.979Z,-2.26
2017-01-27T03:33:04.992Z,-2.37
2017-01-27T03:34:05.008Z,-2.49
2017-01-27T03:35:04.627Z,-2.45
2017-01-27T03:36:05.027Z,-2.42
2017-01-27T03:38:05.055Z,-2.4
2017-01-27T03:39:19.593Z,-2.37
2017-01-27T03:40:05.077Z,-2.34
2017-01-27T03:41:05.091Z,-2.39
2017-01-27T03:42:05.100Z,-2.29
2017-01-27T03:43:05.124Z,-2.34
2017-01-27T03:44:05.137Z,-2.32
2017-01-27T03:45:05.138Z,-2.29
2017-01-27T03:46:19.681Z,-2.27
2017-01-27T03:47:05.164Z,-2.27
2017-01-27T03:48:05.175Z,-2.35
2017-01-27T03:49:05.194Z,-2.34
2017-01-27T03:50:05.201Z,-2.29
2017-01-27T03:51:05.215Z,-2.35
2017-01-27T03:52:05.225Z,-2.27
2017-01-27T03:53:05.237Z,-2.32
2017-01-27T03:54:19.396Z,-2.42
2017-01-27T03:56:04.888Z,-2.34
2017-01-27T03:57:05.287Z,-2.42
2017-01-27T03:58:05.300Z,-2.39
2017-01-27T04:00:19.855Z,-2.35
2017-01-27T04:01:05.338Z,-2.39
2017-01-27T04:02:05.352Z,-2.4
2017-01-27T04:03:05.367Z,-2.34
2017-01-27T04:04:05.381Z,-2.35
2017-01-27T04:05:05.384Z,-2.5
2017-01-27T04:06:05.650Z,-2.4
2017-01-27T04:08:05.426Z,-2.39
2017-01-27T04:09:05.438Z,-2.32
2017-01-27T04:10:05.446Z,-2.37
2017-01-27T04:12:05.479Z,-2.37
2017-01-27T04:13:05.488Z,-2.39
2017-01-27T04:14:05.500Z,-2.34
2017-01-27T04:15:05.509Z,-2.4
2017-01-27T04:16:05.523Z,-2.4
2017-01-27T04:17:20.066Z,-2.37
2017-01-27T04:18:20.076Z,-2.35
2017-01-27T04:19:05.562Z,-2.39
2017-01-27T04:20:05.571Z,-2.39
2017-01-27T04:21:05.586Z,-2.35
2017-01-27T04:22:05.602Z,-2.4
2017-01-27T04:23:05.608Z,-2.34
2017-01-27T04:24:05.622Z,-2.52
2017-01-27T04:25:05.631Z,-2.39
2017-01-27T04:26:20.173Z,-2.53
2017-01-27T04:27:05.657Z,-2.52
2017-01-27T04:28:05.672Z,-2.48
2017-01-27T04:29:05.690Z,-2.6
2017-01-27T04:30:05.693Z,-2.61
2017-01-27T04:31:05.708Z,-2.61
2017-01-27T04:32:20.251Z,-2.56
2017-01-27T04:33:05.729Z,-2.58
2017-01-27T04:34:20.273Z,-2.64
2017-01-27T04:35:05.760Z,-2.52
2017-01-27T04:36:20.295Z,-2.42
2017-01-27T04:37:05.776Z,-2.39
2017-01-27T04:38:05.792Z,-2.4
2017-01-27T04:39:05.807Z,-2.4
2017-01-27T04:41:05.837Z,-2.42
2017-01-27T04:42:20.368Z,-2.37
2017-01-27T04:44:05.867Z,-2.48
2017-01-27T04:45:05.877Z,-2.55
2017-01-27T04:46:05.888Z,-2.37
2017-01-27T04:47:05.517Z,-2.43
2017-01-27T04:48:05.527Z,-2.39
2017-01-27T04:49:05.931Z,-2.35
2017-01-27T04:50:20.468Z,-2.37
2017-01-27T04:51:05.951Z,-2.42
2017-01-27T04:52:05.974Z,-2.37
2017-01-27T04:53:05.977Z,-2.27
2017-01-27T04:54:05.989Z,-2.27
2017-01-27T04:55:05.998Z,-2.4
2017-01-27T04:56:06.016Z,-2.42
2017-01-27T04:57:06.023Z,-2.48
2017-01-27T04:58:20.565Z,-2.48
2017-01-27T04:59:06.050Z,-2.5
2017-01-27T05:00:06.059Z,-2.43
2017-01-27T05:01:06.078Z,-2.53
2017-01-27T05:02:06.090Z,-2.37
2017-01-27T05:03:06.098Z,-2.34
2017-01-27T05:04:06.107Z,-2.48
2017-01-27T05:05:06.120Z,-2.4
2017-01-27T05:06:20.662Z,-2.4
2017-01-27T05:07:06.151Z,-2.48
2017-01-27T05:08:06.161Z,-2.46
2017-01-27T05:09:06.172Z,-2.49
2017-01-27T05:10:21.012Z,-2.42
2017-01-27T05:11:06.197Z,-2.45
2017-01-27T05:12:06.209Z,-2.4
2017-01-27T05:13:06.219Z,-2.5
2017-01-27T05:14:20.760Z,-2.43
2017-01-27T05:15:06.243Z,-2.5
2017-01-27T05:16:06.262Z,-2.52
2017-01-27T05:17:06.269Z,-2.64
2017-01-27T05:18:06.282Z,-2.63
2017-01-27T05:19:06.293Z,-2.77
2017-01-27T05:20:06.307Z,-2.85
2017-01-27T05:21:20.847Z,-2.81
2017-01-27T05:22:06.329Z,-2.73
2017-01-27T05:23:06.343Z,-2.67
2017-01-27T05:24:06.354Z,-2.61
2017-01-27T05:25:06.366Z,-2.61
2017-01-27T05:26:06.379Z,-2.66
2017-01-27T05:27:06.393Z,-2.63
2017-01-27T05:28:06.407Z,-2.63
2017-01-27T05:29:20.945Z,-2.66
2017-01-27T05:30:06.435Z,-2.77
2017-01-27T05:31:06.438Z,-2.78
2017-01-27T05:32:06.450Z,-2.74
2017-01-27T05:33:06.472Z,-2.7
2017-01-27T05:34:06.477Z,-2.7
2017-01-27T05:35:06.484Z,-2.79
2017-01-27T05:36:06.501Z,-2.84
2017-01-27T05:37:21.042Z,-2.89
2017-01-27T05:38:21.052Z,-2.94
2017-01-27T05:39:06.534Z,-2.97
2017-01-27T05:40:06.552Z,-2.96
2017-01-27T05:41:06.558Z,-3
2017-01-27T05:42:06.192Z,-2.96
2017-01-27T05:43:06.609Z,-3.02
2017-01-27T05:44:06.595Z,-3.03
2017-01-27T05:45:06.610Z,-3.03
2017-01-27T05:46:06.619Z,-2.91
2017-01-27T05:47:06.632Z,-2.84
2017-01-27T05:48:06.642Z,-2.91
2017-01-27T05:49:06.270Z,-2.85
2017-01-27T05:50:06.668Z,-2.92
2017-01-27T05:51:06.683Z,-2.94
2017-01-27T05:52:06.691Z,-2.91
2017-01-27T05:53:06.346Z,-2.94
2017-01-27T05:54:06.717Z,-2.92
2017-01-27T05:55:06.730Z,-2.88
2017-01-27T05:56:06.747Z,-2.79
2017-01-27T05:57:06.755Z,-2.74
2017-01-27T05:58:06.762Z,-2.74
2017-01-27T05:59:06.782Z,-2.77
2017-01-27T06:00:06.790Z,-2.77
2017-01-27T06:01:21.329Z,-2.68
2017-01-27T06:02:06.426Z,-2.7
2017-01-27T06:03:06.828Z,-2.81
2017-01-27T06:04:06.452Z,-2.81
2017-01-27T06:05:06.848Z,-2.78
2017-01-27T06:06:06.860Z,-2.7
2017-01-27T06:07:06.875Z,-2.73
2017-01-27T06:08:06.886Z,-2.68
2017-01-27T06:09:06.896Z,-2.7
2017-01-27T06:10:21.438Z,-2.79
2017-01-27T06:11:06.928Z,-2.77
2017-01-27T06:12:06.933Z,-2.77
2017-01-27T06:13:06.948Z,-2.79
2017-01-27T06:14:06.957Z,-2.77
2017-01-27T06:15:06.968Z,-2.78
2017-01-27T06:17:21.525Z,-2.73
2017-01-27T06:18:07.009Z,-2.7
2017-01-27T06:19:06.631Z,-2.71
2017-01-27T06:20:07.030Z,-2.68
2017-01-27T06:21:07.042Z,-2.71
2017-01-27T06:22:07.055Z,-2.74
2017-01-27T06:23:07.066Z,-2.7
2017-01-27T06:24:21.608Z,-2.74
2017-01-27T06:25:07.092Z,-2.73
2017-01-27T06:26:21.630Z,-2.66
2017-01-27T06:27:06.728Z,-2.68
2017-01-27T06:28:07.124Z,-2.68
2017-01-27T06:29:06.751Z,-2.68
2017-01-27T06:30:07.151Z,-2.7
2017-01-27T06:31:07.168Z,-2.71
2017-01-27T06:32:07.173Z,-2.64
2017-01-27T06:33:21.714Z,-2.63
2017-01-27T06:34:07.198Z,-2.55
2017-01-27T06:35:07.211Z,-2.58
2017-01-27T06:36:07.225Z,-2.63
2017-01-27T06:37:07.233Z,-2.53
2017-01-27T06:38:07.270Z,-2.5
2017-01-27T06:39:07.257Z,-2.49
2017-01-27T06:40:07.270Z,-2.48
2017-01-27T06:41:07.283Z,-2.61
2017-01-27T06:42:07.292Z,-2.67
2017-01-27T06:43:07.306Z,-2.64
2017-01-27T06:44:07.320Z,-2.67
2017-01-27T06:45:07.328Z,-2.63
2017-01-27T06:46:06.956Z,-2.6
2017-01-27T06:47:06.968Z,-2.67
2017-01-27T06:49:21.912Z,-2.64
2017-01-27T06:50:07.397Z,-2.67
2017-01-27T06:51:07.401Z,-2.78
2017-01-27T06:52:07.410Z,-2.79
2017-01-27T06:53:07.424Z,-2.79
2017-01-27T06:54:07.437Z,-2.73
2017-01-27T06:55:07.473Z,-2.82
2017-01-27T06:56:07.464Z,-2.85
2017-01-27T06:57:22.002Z,-2.91
2017-01-27T06:58:22.013Z,-2.85
2017-01-27T06:59:22.025Z,-2.81
2017-01-27T07:00:07.122Z,-2.79
2017-01-27T07:01:07.521Z,-2.86
2017-01-27T07:02:07.548Z,-2.91
2017-01-27T07:03:07.552Z,-2.88
2017-01-27T07:04:22.085Z,-2.82
2017-01-27T07:05:07.181Z,-2.94
2017-01-27T07:06:07.587Z,-2.82
2017-01-27T07:07:07.593Z,-2.86
2017-01-27T07:08:07.607Z,-2.85
2017-01-27T07:09:07.617Z,-2.79
2017-01-27T07:10:22.160Z,-2.78
2017-01-27T07:12:07.652Z,-2.86
2017-01-27T07:13:07.664Z,-2.74
2017-01-27T07:14:07.287Z,-2.78
2017-01-27T07:16:07.315Z,-2.74
2017-01-27T07:17:07.714Z,-2.79
2017-01-27T07:18:07.724Z,-2.74
2017-01-27T07:19:07.738Z,-2.71
2017-01-27T07:21:07.762Z,-2.61
2017-01-27T07:22:07.775Z,-2.61
2017-01-27T07:23:07.785Z,-2.61
2017-01-27T07:24:07.412Z,-2.67
2017-01-27T07:25:07.422Z,-2.61
2017-01-27T07:26:07.435Z,-2.61
2017-01-27T07:27:07.448Z,-2.58
2017-01-27T07:28:07.459Z,-2.58
2017-01-27T07:29:07.473Z,-2.64
2017-01-27T07:30:07.102Z,-2.58
2017-01-27T07:31:07.886Z,-2.56
2017-01-27T07:32:07.892Z,-2.64
2017-01-27T07:34:07.916Z,-2.53
2017-01-27T07:35:07.544Z,-2.5
2017-01-27T07:36:22.085Z,-2.48
2017-01-27T07:37:07.183Z,-2.45
2017-01-27T07:39:07.977Z,-2.37
2017-01-27T07:40:07.215Z,-2.53
2017-01-27T07:41:08.004Z,-2.52
2017-01-27T07:42:07.780Z,-2.43
2017-01-27T07:43:08.031Z,-2.48
2017-01-27T07:44:07.656Z,-2.4
2017-01-27T07:45:22.585Z,-2.42
2017-01-27T07:46:08.064Z,-2.39
2017-01-27T07:47:07.687Z,-2.35
2017-01-27T07:48:07.701Z,-2.39
2017-01-27T07:49:07.713Z,-2.39
2017-01-27T07:50:07.729Z,-2.27
2017-01-27T07:52:22.666Z,-2.29
2017-01-27T07:53:08.150Z,-2.15
2017-01-27T07:54:08.160Z,-2.18
2017-01-27T07:55:07.400Z,-2.13
2017-01-27T07:56:08.187Z,-2.15
2017-01-27T07:57:08.202Z,-2.12
2017-01-27T07:58:22.742Z,-2.1
2017-01-27T07:59:08.224Z,-2.15
2017-01-27T08:00:22.765Z,-2.09
2017-01-27T08:01:08.245Z,-2.08
2017-01-27T08:02:07.873Z,-2.05
2017-01-27T08:03:22.415Z,-2.02
2017-01-27T08:04:08.290Z,-2.02
2017-01-27T08:05:07.915Z,-1.98
2017-01-27T08:06:08.316Z,-1.98
2017-01-27T08:08:22.865Z,-2.03
2017-01-27T08:10:07.591Z,-1.94
2017-01-27T08:12:08.389Z,-1.87
2017-01-27T08:13:08.400Z,-1.79
2017-01-27T08:14:08.025Z,-1.72
2017-01-27T08:15:07.652Z,-1.74
2017-01-27T08:16:08.050Z,-1.84
2017-01-27T08:17:08.065Z,-1.88
2017-01-27T08:18:08.463Z,-1.8
2017-01-27T08:19:08.087Z,-1.8
2017-01-27T08:20:08.487Z,-1.77
2017-01-27T08:21:08.115Z,-1.72
2017-01-27T08:22:08.512Z,-1.8
2017-01-27T08:23:08.530Z,-1.66
2017-01-27T08:25:08.555Z,-1.51
2017-01-27T08:26:08.566Z,-1.51
2017-01-27T08:27:08.618Z,-1.51
2017-01-27T08:28:08.205Z,-1.52
2017-01-27T08:29:08.604Z,-1.49
2017-01-27T08:30:08.229Z,-1.48
2017-01-27T08:31:08.628Z,-1.56
2017-01-27T08:32:23.173Z,-1.38
2017-01-27T08:33:08.654Z,-1.4
2017-01-27T08:34:08.290Z,-1.4
2017-01-27T08:35:08.681Z,-1.28
2017-01-27T08:36:08.696Z,-1.13
2017-01-27T08:37:08.705Z,-1.2
2017-01-27T08:38:08.720Z,-1.07
2017-01-27T08:39:23.264Z,-1.1
2017-01-27T08:40:08.748Z,-1.07
2017-01-27T08:41:08.760Z,-1.01
2017-01-27T08:42:08.773Z,-1.04
2017-01-27T08:43:08.403Z,-0.95
2017-01-27T08:44:08.415Z,-0.91
2017-01-27T08:45:08.815Z,-0.82
2017-01-27T08:46:08.442Z,-0.82
2017-01-27T08:47:23.371Z,-0.75
2017-01-27T08:48:08.857Z,-0.72
2017-01-27T08:49:08.865Z,-0.67
2017-01-27T08:50:08.498Z,-0.67
2017-01-27T08:52:08.906Z,-0.55
2017-01-27T08:53:08.924Z,-0.54
2017-01-27T08:54:08.558Z,-0.55
2017-01-27T08:55:08.958Z,-0.43
2017-01-27T08:56:08.960Z,-0.4
2017-01-27T08:57:08.589Z,-0.37
2017-01-27T08:59:09.005Z,-0.36
2017-01-27T09:00:08.633Z,-0.31
2017-01-27T09:01:09.034Z,-0.33
2017-01-27T09:02:23.578Z,-0.26
2017-01-27T09:03:08.679Z,-0.26
2017-01-27T09:04:08.709Z,-0.25
2017-01-27T09:05:09.087Z,-0.15
2017-01-27T09:07:08.731Z,-0.1
2017-01-27T09:08:09.140Z,-0.18
2017-01-27T09:09:09.147Z,0.02
2017-01-27T09:10:08.773Z,-0.04
2017-01-27T09:11:23.702Z,-0.05
2017-01-27T09:12:08.809Z,-0.01
2017-01-27T09:13:08.821Z,-0.03
2017-01-27T09:14:08.832Z,0.13
2017-01-27T09:15:08.846Z,0.17
2017-01-27T09:16:08.858Z,0.14
2017-01-27T09:17:09.258Z,0.13
2017-01-27T09:18:08.884Z,0.2
2017-01-27T09:19:08.897Z,0.21
2017-01-27T09:20:23.828Z,0.35
2017-01-27T09:21:08.926Z,0.42
2017-01-27T09:22:08.942Z,0.46
2017-01-27T09:23:09.340Z,0.38
2017-01-27T09:24:09.356Z,0.38
2017-01-27T09:25:09.368Z,0.38
2017-01-27T09:26:09.382Z,0.42
2017-01-27T09:28:09.024Z,0.55
2017-01-27T09:29:09.424Z,0.57
2017-01-27T09:30:09.446Z,0.47
2017-01-27T09:31:09.096Z,0.51
2017-01-27T09:32:09.470Z,0.57
2017-01-27T09:33:09.485Z,0.58
2017-01-27T09:34:09.503Z,0.58
2017-01-27T09:35:24.045Z,0.62
2017-01-27T09:36:09.532Z,0.69
2017-01-27T09:37:09.552Z,0.62
2017-01-27T09:38:09.557Z,0.72
2017-01-27T09:39:09.581Z,0.78
2017-01-27T09:40:09.199Z,0.83
2017-01-27T09:41:09.600Z,0.9
2017-01-27T09:42:09.617Z,0.93
2017-01-27T09:43:24.160Z,0.96
2017-01-27T09:45:09.659Z,0.94
2017-01-27T09:46:09.672Z,0.98
2017-01-27T09:47:09.689Z,1
2017-01-27T09:48:09.703Z,1
2017-01-27T09:49:09.718Z,1.11
2017-01-27T09:50:09.348Z,0.94
2017-01-27T09:51:09.760Z,0.91
2017-01-27T09:52:09.378Z,1.02
2017-01-27T09:53:09.777Z,1.15
2017-01-27T09:54:09.791Z,1.09
2017-01-27T09:55:09.806Z,1.11
2017-01-27T09:56:09.824Z,1.11
2017-01-27T09:57:09.838Z,1.18
2017-01-27T09:58:09.468Z,1.14
2017-01-27T09:59:24.397Z,1.12
2017-01-27T10:00:09.883Z,1.18
2017-01-27T10:01:09.514Z,1.26
2017-01-27T10:02:09.530Z,1.18
2017-01-27T10:03:09.928Z,1.23
2017-01-27T10:04:09.557Z,1.24
2017-01-27T10:05:09.571Z,1.32
2017-01-27T10:06:09.588Z,1.18
2017-01-27T10:07:09.985Z,1.33
2017-01-27T10:08:10.008Z,1.15
2017-01-27T10:09:24.548Z,1.23
2017-01-27T10:10:10.041Z,1.37
2017-01-27T10:11:10.047Z,1.36
2017-01-27T10:12:09.289Z,1.33
2017-01-27T10:13:09.694Z,1.34
2017-01-27T10:15:10.114Z,1.36
2017-01-27T10:16:10.123Z,1.51
2017-01-27T10:17:10.139Z,1.44
2017-01-27T10:18:10.156Z,1.44
2017-01-27T10:19:10.171Z,1.44
2017-01-27T10:20:10.210Z,1.6
2017-01-27T10:21:10.202Z,1.55
2017-01-27T10:22:24.747Z,1.54
2017-01-27T10:23:10.227Z,1.72
2017-01-27T10:24:10.248Z,1.66
2017-01-27T10:25:10.262Z,1.7
2017-01-27T10:27:10.293Z,1.62
2017-01-27T10:28:10.309Z,1.73
2017-01-27T10:29:10.326Z,1.66
2017-01-27T10:31:10.355Z,1.79
2017-01-27T10:32:10.370Z,1.81
2017-01-27T10:33:10.387Z,1.86
2017-01-27T10:34:10.398Z,1.88
2017-01-27T10:35:10.415Z,1.8
2017-01-27T10:36:24.964Z,1.84
2017-01-27T10:37:10.445Z,1.84
2017-01-27T10:38:10.461Z,1.99
2017-01-27T10:39:25.012Z,1.95
2017-01-27T10:40:10.493Z,2
2017-01-27T10:41:10.507Z,1.98
2017-01-27T10:42:10.528Z,2.21
2017-01-27T10:44:10.553Z,2.16
2017-01-27T10:45:10.573Z,2.25
2017-01-27T10:46:25.115Z,2.3
2017-01-27T10:47:10.603Z,2.36
2017-01-27T10:48:10.234Z,2.39
2017-01-27T10:49:10.635Z,2.38
2017-01-27T10:50:10.651Z,2.41
2017-01-27T10:51:10.669Z,2.39
2017-01-27T10:52:10.678Z,2.42
2017-01-27T10:53:10.693Z,2.53
2017-01-27T10:54:10.324Z,2.53
2017-01-27T10:56:10.352Z,2.49
2017-01-27T10:57:10.755Z,2.43
2017-01-27T10:58:10.776Z,2.36
2017-01-27T10:59:10.786Z,2.41
2017-01-27T11:00:10.413Z,2.48
2017-01-27T11:01:10.820Z,2.49
2017-01-27T11:02:25.392Z,2.53
2017-01-27T11:03:10.844Z,2.59
2017-01-27T11:04:10.474Z,2.6
2017-01-27T11:05:10.877Z,2.6
2017-01-27T11:06:10.912Z,2.59
2017-01-27T11:07:10.913Z,2.49
2017-01-27T11:08:10.537Z,2.56
2017-01-27T11:09:10.938Z,2.52
2017-01-27T11:10:10.182Z,2.46
2017-01-27T11:11:10.972Z,2.52
2017-01-27T11:13:10.616Z,2.57
2017-01-27T11:14:11.016Z,2.61
2017-01-27T11:16:11.045Z,2.77
2017-01-27T11:17:11.065Z,2.81
2017-01-27T11:18:25.608Z,2.82
2017-01-27T11:19:11.121Z,2.72
2017-01-27T11:20:11.147Z,2.79
2017-01-27T11:21:11.130Z,2.97
2017-01-27T11:22:11.140Z,2.97
2017-01-27T11:23:11.170Z,2.9
2017-01-27T11:24:10.786Z,2.95
2017-01-27T11:25:11.190Z,2.78
2017-01-27T11:26:25.735Z,2.79
2017-01-27T11:27:11.221Z,2.81
2017-01-27T11:28:11.234Z,2.81
2017-01-27T11:29:11.250Z,2.77
2017-01-27T11:30:10.877Z,2.87
2017-01-27T11:31:10.894Z,2.81
2017-01-27T11:32:11.302Z,2.89
2017-01-27T11:33:10.924Z,2.92
2017-01-27T11:34:25.861Z,2.92
2017-01-27T11:35:11.341Z,2.95
2017-01-27T11:37:11.375Z,2.99
2017-01-27T11:38:11.003Z,2.99
2017-01-27T11:39:11.407Z,3.06
2017-01-27T11:40:11.422Z,3.05
2017-01-27T11:41:11.437Z,3
2017-01-27T11:42:11.066Z,3.08
2017-01-27T11:43:11.082Z,3.03
2017-01-27T11:44:11.485Z,3.14
2017-01-27T11:45:11.502Z,3.06
2017-01-27T11:46:11.542Z,3.15
2017-01-27T11:47:11.531Z,3.06
2017-01-27T11:48:11.548Z,3.17
2017-01-27T11:49:26.094Z,3.21
2017-01-27T11:50:11.591Z,3.21
2017-01-27T11:51:11.210Z,3.11
2017-01-27T11:52:11.611Z,3.17
2017-01-27T11:53:10.851Z,3.11
2017-01-27T11:54:11.642Z,3.31
2017-01-27T11:55:11.271Z,3.5
2017-01-27T11:56:11.679Z,3.48
2017-01-27T11:57:11.302Z,3.35
2017-01-27T11:58:11.321Z,3.28
2017-01-27T11:59:11.338Z,3.36
2017-01-27T12:00:11.364Z,3.32
2017-01-27T12:02:11.767Z,3.32
2017-01-27T12:03:11.400Z,3.48
2017-01-27T12:04:11.415Z,3.45
2017-01-27T12:05:11.817Z,3.35
2017-01-27T12:06:11.834Z,3.32
2017-01-27T12:07:11.851Z,3.4
2017-01-27T12:08:11.862Z,3.4
2017-01-27T12:09:11.883Z,3.5
2017-01-27T12:10:11.895Z,3.52
2017-01-27T12:11:11.911Z,3.54
2017-01-27T12:12:26.461Z,3.5
2017-01-27T12:13:11.947Z,3.54
2017-01-27T12:14:11.572Z,3.5
2017-01-27T12:15:11.590Z,3.47
2017-01-27T12:16:11.658Z,3.54
2017-01-27T12:17:11.618Z,3.58
2017-01-27T12:18:11.638Z,3.6
2017-01-27T12:19:11.653Z,3.55
2017-01-27T12:20:11.667Z,3.48
2017-01-27T12:21:26.601Z,3.57
2017-01-27T12:22:12.088Z,3.48
2017-01-27T12:24:12.121Z,3.6
2017-01-27T12:25:12.137Z,3.55
2017-01-27T12:26:11.764Z,3.51
2017-01-27T12:27:12.192Z,3.58
2017-01-27T12:28:11.797Z,3.58
2017-01-27T12:29:26.732Z,3.51
2017-01-27T12:30:12.220Z,3.55
2017-01-27T12:31:12.234Z,3.48
2017-01-27T12:32:12.253Z,3.51
2017-01-27T12:33:11.879Z,3.55
2017-01-27T12:34:12.285Z,3.51
2017-01-27T12:35:12.304Z,3.5
2017-01-27T12:36:12.312Z,3.6
2017-01-27T12:37:26.860Z,3.61
2017-01-27T12:38:12.345Z,3.61
2017-01-27T12:39:12.362Z,3.54
2017-01-27T12:40:12.578Z,3.61
2017-01-27T12:41:12.391Z,3.69
2017-01-27T12:42:12.043Z,3.73
2017-01-27T12:43:12.040Z,3.61
2017-01-27T12:44:12.443Z,3.62
2017-01-27T12:45:26.990Z,3.65
2017-01-27T12:46:12.475Z,3.65
2017-01-27T12:47:12.493Z,3.62
2017-01-27T12:48:12.514Z,3.54
2017-01-27T12:49:12.522Z,3.61
2017-01-27T12:50:26.682Z,3.65
2017-01-27T12:51:12.557Z,3.6
2017-01-27T12:53:27.119Z,3.6
2017-01-27T12:54:11.835Z,3.7
2017-01-27T12:55:12.703Z,3.8
2017-01-27T12:56:12.640Z,3.69
2017-01-27T12:57:12.654Z,3.73
2017-01-27T12:58:12.668Z,3.76
2017-01-27T12:59:12.688Z,3.72
2017-01-27T13:00:12.349Z,3.73
2017-01-27T13:01:12.717Z,3.73
2017-01-27T13:02:12.347Z,3.73
2017-01-27T13:03:26.898Z,3.76
2017-01-27T13:04:27.298Z,3.7
2017-01-27T13:05:12.786Z,3.69
2017-01-27T13:06:12.801Z,3.62
2017-01-27T13:07:12.823Z,3.57
2017-01-27T13:08:12.839Z,3.62
2017-01-27T13:09:26.999Z,3.61
2017-01-27T13:10:12.888Z,3.58
2017-01-27T13:11:12.498Z,3.66
2017-01-27T13:12:12.516Z,3.62
2017-01-27T13:13:12.952Z,3.73
2017-01-27T13:14:12.939Z,3.75
2017-01-27T13:15:12.952Z,3.75
2017-01-27T13:16:12.985Z,3.73
2017-01-27T13:17:12.987Z,3.68
2017-01-27T13:18:13.035Z,3.61
2017-01-27T13:19:13.019Z,3.72
2017-01-27T13:20:13.054Z,3.73
2017-01-27T13:21:13.052Z,3.72
2017-01-27T13:22:13.088Z,3.68
2017-01-27T13:23:13.090Z,3.62
2017-01-27T13:24:27.251Z,3.72
2017-01-27T13:25:13.115Z,3.75
2017-01-27T13:26:13.150Z,3.69
2017-01-27T13:27:13.158Z,3.73
2017-01-27T13:28:13.168Z,3.65
2017-01-27T13:29:12.797Z,3.6
2017-01-27T13:30:12.812Z,3.66
2017-01-27T13:31:13.222Z,3.7
2017-01-27T13:32:13.236Z,3.76
2017-01-27T13:33:13.253Z,3.69
2017-01-27T13:34:12.879Z,3.62
2017-01-27T13:35:13.333Z,3.65
2017-01-27T13:36:13.300Z,3.6
2017-01-27T13:37:13.316Z,3.69
2017-01-27T13:38:13.334Z,3.61
2017-01-27T13:39:12.963Z,3.73
2017-01-27T13:40:13.368Z,3.69
2017-01-27T13:42:13.400Z,3.75
2017-01-27T13:43:13.417Z,3.73
2017-01-27T13:44:13.435Z,3.79
2017-01-27T13:45:13.449Z,3.73
2017-01-27T13:46:13.468Z,3.75
2017-01-27T13:47:13.484Z,3.6
2017-01-27T13:48:13.114Z,3.78
2017-01-27T13:49:13.549Z,3.72
2017-01-27T13:50:13.542Z,3.69
2017-01-27T13:51:13.551Z,3.66
2017-01-27T13:52:13.566Z,3.57
2017-01-27T13:53:13.582Z,3.69
2017-01-27T13:54:13.602Z,3.58